createdAt,value
2019-05-03T00:00:08.617Z,0
2019-05-03T00:01:08.016Z,0
2019-05-03T00:02:07.434Z,0
2019-05-03T00:03:07.852Z,0
2019-05-03T00:04:07.204Z,0
2019-05-03T00:05:06.627Z,0
2019-05-03T00:05:18.499Z,0
2019-05-03T00:06:17.879Z,0
2019-05-03T00:07:17.558Z,0
2019-05-03T00:08:17.020Z,0
2019-05-03T00:09:28.260Z,0
2019-05-03T00:10:27.641Z,0
2019-05-03T00:11:27.113Z,0
2019-05-03T00:12:38.435Z,0
2019-05-03T00:13:37.877Z,0
2019-05-03T00:14:37.367Z,0
2019-05-03T00:15:36.882Z,0
2019-05-03T00:15:48.723Z,0
2019-05-03T00:16:48.466Z,0
2019-05-03T00:17:47.920Z,0
2019-05-03T00:18:47.231Z,0
2019-05-03T00:19:46.739Z,0
2019-05-03T00:19:58.574Z,0
2019-05-03T00:20:58.057Z,0
2019-05-03T00:21:57.547Z,0
2019-05-03T00:22:57.819Z,0
2019-05-03T00:23:57.396Z,0
2019-05-03T00:25:05.745Z,0
2019-05-03T00:25:08.639Z,0
2019-05-03T00:27:08.622Z,0
2019-05-03T00:28:08.127Z,0
2019-05-03T00:29:07.566Z,0
2019-05-03T00:30:06.880Z,0
2019-05-03T00:31:18.243Z,0
2019-05-03T00:32:17.618Z,0
2019-05-03T00:33:17.140Z,0
2019-05-03T00:34:16.718Z,0
2019-05-03T00:34:28.637Z,0
2019-05-03T00:35:28.033Z,0
2019-05-03T00:36:27.496Z,0
2019-05-03T00:37:26.977Z,0
2019-05-03T00:38:38.515Z,0
2019-05-03T00:39:37.796Z,0
2019-05-03T00:40:37.276Z,0
2019-05-03T00:41:36.902Z,0
2019-05-03T00:42:48.180Z,0
2019-05-03T00:43:47.612Z,0
2019-05-03T00:44:47.015Z,0
2019-05-03T00:45:58.344Z,0
2019-05-03T00:46:57.968Z,0
2019-05-03T00:47:57.434Z,0
2019-05-03T00:48:56.853Z,0
2019-05-03T00:49:08.683Z,0
2019-05-03T00:50:08.228Z,0
2019-05-03T00:51:07.747Z,0
2019-05-03T00:52:07.179Z,0
2019-05-03T00:53:06.707Z,0
2019-05-03T00:53:18.552Z,0
2019-05-03T00:54:18.019Z,0
2019-05-03T00:55:19.340Z,0
2019-05-03T00:56:18.152Z,0
2019-05-03T00:57:17.590Z,0
2019-05-03T00:58:17.042Z,0
2019-05-03T00:59:16.754Z,0
2019-05-03T00:59:28.595Z,0
2019-05-03T01:00:27.042Z,0
2019-05-03T01:01:38.460Z,0
2019-05-03T01:02:37.841Z,0
2019-05-03T01:03:37.281Z,0
2019-05-03T01:04:36.705Z,0
2019-05-03T01:04:48.648Z,0
2019-05-03T01:05:48.102Z,0
2019-05-03T01:06:47.533Z,0
2019-05-03T01:07:46.896Z,0
2019-05-03T01:08:58.208Z,0
2019-05-03T01:09:57.654Z,0
2019-05-03T01:10:57.174Z,0
2019-05-03T01:11:56.673Z,0
2019-05-03T01:12:08.563Z,0
2019-05-03T01:13:08.043Z,0
2019-05-03T01:14:07.410Z,0
2019-05-03T01:15:06.934Z,0
2019-05-03T01:16:18.304Z,0
2019-05-03T01:17:18.689Z,0
2019-05-03T01:18:18.191Z,0
2019-05-03T01:19:17.809Z,0
2019-05-03T01:20:17.259Z,0
2019-05-03T01:21:16.712Z,0
2019-05-03T01:21:28.790Z,0
2019-05-03T01:22:28.267Z,0
2019-05-03T01:23:27.731Z,0
2019-05-03T01:24:28.090Z,0
2019-05-03T01:25:32.471Z,0
2019-05-03T01:26:27.968Z,0
2019-05-03T01:27:27.340Z,0
2019-05-03T01:28:26.854Z,0
2019-05-03T01:29:38.282Z,0
2019-05-03T01:30:38.599Z,0
2019-05-03T01:31:38.139Z,0
2019-05-03T01:32:37.632Z,0
2019-05-03T01:33:37.270Z,0
2019-05-03T01:34:36.845Z,0
2019-05-03T01:35:48.088Z,0
2019-05-03T01:36:47.490Z,0
2019-05-03T01:37:46.951Z,0
2019-05-03T01:38:58.364Z,0
2019-05-03T01:39:57.866Z,0
2019-05-03T01:40:57.261Z,0
2019-05-03T01:41:56.837Z,0
2019-05-03T01:42:08.671Z,0
2019-05-03T01:43:08.287Z,0
2019-05-03T01:44:07.759Z,0
2019-05-03T01:45:07.143Z,0
2019-05-03T01:46:06.631Z,0
2019-05-03T01:46:18.492Z,0
2019-05-03T01:47:17.868Z,0
2019-05-03T01:48:17.499Z,0
2019-05-03T01:49:16.974Z,0
2019-05-03T01:50:28.452Z,0
2019-05-03T01:51:27.919Z,0
2019-05-03T01:52:27.333Z,0
2019-05-03T01:53:26.811Z,0
2019-05-03T01:53:38.738Z,0
2019-05-03T01:54:38.170Z,0
2019-05-03T01:55:44.363Z,0
2019-05-03T01:56:37.089Z,0
2019-05-03T01:57:48.405Z,0
2019-05-03T01:58:47.838Z,0
2019-05-03T01:59:47.312Z,0
2019-05-03T02:00:46.962Z,0
2019-05-03T02:01:58.274Z,0
2019-05-03T02:02:57.937Z,0
2019-05-03T02:03:57.274Z,0
2019-05-03T02:04:56.784Z,0
2019-05-03T02:05:08.672Z,0
2019-05-03T02:06:08.092Z,0
2019-05-03T02:07:07.422Z,0
2019-05-03T02:08:06.951Z,0
2019-05-03T02:09:18.241Z,0
2019-05-03T02:10:17.722Z,0
2019-05-03T02:11:17.125Z,0
2019-05-03T02:12:28.693Z,0
2019-05-03T02:13:28.171Z,0
2019-05-03T02:14:27.561Z,0
2019-05-03T02:15:26.871Z,0
2019-05-03T02:16:38.435Z,0
2019-05-03T02:17:37.859Z,0
2019-05-03T02:18:37.337Z,0
2019-05-03T02:19:36.801Z,0
2019-05-03T02:20:48.192Z,0
2019-05-03T02:21:47.664Z,0
2019-05-03T02:22:46.999Z,0
2019-05-03T02:23:46.769Z,0
2019-05-03T02:23:58.602Z,0
2019-05-03T02:24:58.098Z,0
2019-05-03T02:25:59.192Z,0
2019-05-03T02:26:57.897Z,0
2019-05-03T02:27:57.366Z,0
2019-05-03T02:28:57.096Z,0
2019-05-03T02:30:08.418Z,0
2019-05-03T02:31:07.827Z,0
2019-05-03T02:32:07.194Z,0
2019-05-03T02:33:06.649Z,0
2019-05-03T02:33:18.536Z,0
2019-05-03T02:34:18.138Z,0
2019-05-03T02:35:17.619Z,0
2019-05-03T02:36:17.118Z,0
2019-05-03T02:37:16.632Z,0
2019-05-03T02:37:28.470Z,0
2019-05-03T02:38:27.989Z,0
2019-05-03T02:39:27.387Z,0
2019-05-03T02:40:27.898Z,0
2019-05-03T02:41:27.530Z,0
2019-05-03T02:42:26.886Z,0
2019-05-03T02:43:38.226Z,0
2019-05-03T02:44:37.744Z,0
2019-05-03T02:45:37.141Z,0
2019-05-03T02:46:36.816Z,0
2019-05-03T02:46:48.654Z,0
2019-05-03T02:47:48.164Z,0
2019-05-03T02:48:47.619Z,0
2019-05-03T02:49:47.035Z,0
2019-05-03T02:50:58.407Z,0
2019-05-03T02:51:57.985Z,0
2019-05-03T02:52:57.555Z,0
2019-05-03T02:53:57.327Z,0
2019-05-03T02:54:08.731Z,0
2019-05-03T02:55:08.391Z,0
2019-05-03T02:56:17.763Z,0
2019-05-03T02:57:08.088Z,0
2019-05-03T02:58:07.456Z,0
2019-05-03T02:59:07.028Z,0
2019-05-03T03:00:18.404Z,0
2019-05-03T03:01:17.772Z,0
2019-05-03T03:02:17.391Z,0
2019-05-03T03:03:16.795Z,0
2019-05-03T03:03:28.622Z,0
2019-05-03T03:04:28.041Z,0
2019-05-03T03:05:27.458Z,0
2019-05-03T03:06:27.084Z,0
2019-05-03T03:06:38.817Z,0
2019-05-03T03:07:38.323Z,0
2019-05-03T03:08:37.737Z,0
2019-05-03T03:09:37.110Z,0
2019-05-03T03:10:48.551Z,0
2019-05-03T03:11:48.056Z,0
2019-05-03T03:12:47.414Z,0
2019-05-03T03:13:46.870Z,0
2019-05-03T03:14:58.358Z,0
2019-05-03T03:15:57.664Z,0
2019-05-03T03:16:57.156Z,0
2019-05-03T03:17:56.731Z,0
2019-05-03T03:18:08.618Z,0
2019-05-03T03:19:08.066Z,0
2019-05-03T03:20:07.446Z,0
2019-05-03T03:21:06.986Z,0
2019-05-03T03:22:06.669Z,0
2019-05-03T03:22:18.506Z,0
2019-05-03T03:23:18.107Z,0
2019-05-03T03:24:17.583Z,0
2019-05-03T03:25:17.691Z,0
2019-05-03T03:25:28.748Z,0
2019-05-03T03:27:16.868Z,0
2019-05-03T03:27:28.708Z,0
2019-05-03T03:28:28.312Z,0
2019-05-03T03:29:27.770Z,0
2019-05-03T03:30:28.725Z,0
2019-05-03T03:31:28.596Z,0
2019-05-03T03:32:29.674Z,0
2019-05-03T03:33:28.247Z,0
2019-05-03T03:34:28.620Z,0
2019-05-03T03:35:30.092Z,0
2019-05-03T03:37:17.558Z,0
2019-05-03T03:38:17.008Z,0
2019-05-03T03:39:28.488Z,0
2019-05-03T03:40:28.054Z,0
2019-05-03T03:41:27.450Z,0
2019-05-03T03:42:26.944Z,0
2019-05-03T03:43:38.332Z,0
2019-05-03T03:44:37.691Z,0
2019-05-03T03:45:37.247Z,0
2019-05-03T03:46:36.863Z,0
2019-05-03T03:46:48.713Z,0
2019-05-03T03:47:48.349Z,0
2019-05-03T03:48:47.815Z,0
2019-05-03T03:49:47.138Z,0
2019-05-03T03:50:46.654Z,0
2019-05-03T03:50:58.490Z,0
2019-05-03T03:51:57.928Z,0
2019-05-03T03:52:57.494Z,0
2019-05-03T03:53:56.973Z,0
2019-05-03T03:55:08.357Z,0
2019-05-03T03:56:07.814Z,0
2019-05-03T03:57:08.511Z,0
2019-05-03T03:58:07.934Z,0
2019-05-03T03:59:07.379Z,0
2019-05-03T04:00:06.732Z,0
2019-05-03T04:00:18.765Z,0
2019-05-03T04:01:18.240Z,0
2019-05-03T04:02:17.793Z,0
2019-05-03T04:03:17.100Z,0
2019-05-03T04:04:16.681Z,0
2019-05-03T04:04:28.671Z,5.625
2019-05-03T04:05:28.069Z,5.625
2019-05-03T04:06:27.378Z,5.625
2019-05-03T04:07:28.046Z,5.625
2019-05-03T04:08:27.485Z,5.625
2019-05-03T04:09:27.934Z,5.625
2019-05-03T04:10:27.305Z,11.25
2019-05-03T04:11:26.883Z,11.25
2019-05-03T04:11:38.719Z,11.25
2019-05-03T04:12:38.396Z,11.25
2019-05-03T04:13:37.780Z,11.25
2019-05-03T04:14:37.337Z,11.25
2019-05-03T04:15:37.328Z,11.25
2019-05-03T04:16:48.193Z,16.875
2019-05-03T04:17:36.854Z,16.875
2019-05-03T04:17:48.691Z,16.875
2019-05-03T04:18:48.154Z,11.25
2019-05-03T04:19:47.594Z,11.25
2019-05-03T04:20:46.924Z,11.25
2019-05-03T04:21:58.271Z,11.25
2019-05-03T04:22:57.721Z,11.25
2019-05-03T04:23:57.240Z,11.25
2019-05-03T04:24:56.815Z,11.25
2019-05-03T04:25:08.647Z,11.25
2019-05-03T04:26:08.268Z,11.25
2019-05-03T04:27:17.877Z,11.25
2019-05-03T04:28:08.188Z,16.875
2019-05-03T04:29:07.743Z,16.875
2019-05-03T04:30:07.168Z,16.875
2019-05-03T04:31:18.514Z,16.875
2019-05-03T04:32:17.964Z,16.875
2019-05-03T04:33:17.463Z,16.875
2019-05-03T04:34:17.784Z,16.875
2019-05-03T04:35:17.643Z,16.875
2019-05-03T04:36:17.532Z,16.875
2019-05-03T04:37:17.786Z,16.875
2019-05-03T04:38:17.916Z,16.875
2019-05-03T04:39:20.190Z,16.875
2019-05-03T04:40:18.363Z,16.875
2019-05-03T04:41:06.644Z,16.875
2019-05-03T04:41:18.591Z,16.875
2019-05-03T04:42:07.133Z,16.875
2019-05-03T04:42:18.779Z,16.875
2019-05-03T04:43:07.182Z,16.875
2019-05-03T04:44:06.984Z,16.875
2019-05-03T04:45:18.186Z,22.5
2019-05-03T04:46:17.417Z,22.5
2019-05-03T04:47:17.669Z,22.5
2019-05-03T04:48:17.875Z,22.5
2019-05-03T04:49:17.986Z,22.5
2019-05-03T04:50:17.938Z,28.125
2019-05-03T04:51:18.085Z,28.125
2019-05-03T04:52:17.875Z,28.125
2019-05-03T04:53:18.001Z,28.125
2019-05-03T04:54:18.155Z,33.75
2019-05-03T04:55:18.243Z,33.75
2019-05-03T04:56:17.926Z,33.75
2019-05-03T04:57:34.753Z,28.125
2019-05-03T04:58:18.210Z,22.5
2019-05-03T04:59:17.585Z,22.5
2019-05-03T05:00:18.119Z,22.5
2019-05-03T05:01:17.660Z,22.5
2019-05-03T05:02:17.067Z,16.875
2019-05-03T05:03:16.728Z,16.875
2019-05-03T05:03:28.562Z,16.875
2019-05-03T05:04:27.926Z,16.875
2019-05-03T05:05:27.362Z,16.875
2019-05-03T05:06:26.814Z,22.5
2019-05-03T05:07:37.222Z,22.5
2019-05-03T05:08:36.830Z,22.5
2019-05-03T05:08:48.724Z,22.5
2019-05-03T05:09:48.038Z,22.5
2019-05-03T05:10:47.590Z,28.125
2019-05-03T05:11:46.964Z,28.125
2019-05-03T05:12:58.495Z,28.125
2019-05-03T05:13:58.134Z,28.125
2019-05-03T05:14:57.567Z,28.125
2019-05-03T05:15:57.101Z,33.75
2019-05-03T05:16:56.724Z,39.375
2019-05-03T05:17:08.559Z,33.75
2019-05-03T05:18:08.219Z,33.75
2019-05-03T05:19:07.574Z,33.75
2019-05-03T05:20:07.106Z,33.75
2019-05-03T05:21:18.623Z,33.75
2019-05-03T05:22:18.175Z,39.375
2019-05-03T05:23:17.768Z,33.75
2019-05-03T05:24:17.212Z,33.75
2019-05-03T05:25:17.700Z,33.75
2019-05-03T05:26:17.111Z,33.75
2019-05-03T05:27:28.427Z,39.375
2019-05-03T05:28:27.917Z,33.75
2019-05-03T05:29:27.399Z,33.75
2019-05-03T05:30:27.088Z,33.75
2019-05-03T05:31:26.707Z,33.75
2019-05-03T05:31:38.546Z,33.75
2019-05-03T05:32:38.054Z,33.75
2019-05-03T05:33:37.534Z,33.75
2019-05-03T05:34:37.106Z,33.75
2019-05-03T05:35:48.458Z,39.375
2019-05-03T05:36:48.405Z,39.375
2019-05-03T05:37:36.639Z,33.75
2019-05-03T05:37:48.551Z,33.75
2019-05-03T05:38:48.447Z,39.375
2019-05-03T05:39:37.191Z,33.75
2019-05-03T05:40:37.014Z,33.75
2019-05-03T05:41:36.674Z,39.375
2019-05-03T05:41:48.667Z,39.375
2019-05-03T05:42:48.648Z,39.375
2019-05-03T05:43:48.670Z,39.375
2019-05-03T05:44:48.164Z,39.375
2019-05-03T05:45:48.770Z,45
2019-05-03T05:46:48.256Z,45
2019-05-03T05:47:47.709Z,45
2019-05-03T05:48:47.064Z,45
2019-05-03T05:49:46.704Z,45
2019-05-03T05:49:58.628Z,45
2019-05-03T05:50:58.051Z,45
2019-05-03T05:51:57.505Z,45
2019-05-03T05:52:56.968Z,45
2019-05-03T05:54:08.437Z,45
2019-05-03T05:55:07.799Z,50.625
2019-05-03T05:56:07.241Z,50.625
2019-05-03T05:57:08.426Z,50.625
2019-05-03T05:57:18.669Z,50.625
2019-05-03T05:58:18.080Z,50.625
2019-05-03T05:59:17.527Z,50.625
2019-05-03T06:00:17.226Z,50.625
2019-05-03T06:01:28.464Z,50.625
2019-05-03T06:02:27.802Z,50.625
2019-05-03T06:03:27.317Z,50.625
2019-05-03T06:04:26.723Z,50.625
2019-05-03T06:04:38.594Z,50.625
2019-05-03T06:05:38.354Z,50.625
2019-05-03T06:06:37.967Z,56.25
2019-05-03T06:07:37.239Z,56.25
2019-05-03T06:08:36.664Z,56.25
2019-05-03T06:08:48.502Z,56.25
2019-05-03T06:09:47.940Z,61.875
2019-05-03T06:10:47.373Z,56.25
2019-05-03T06:11:46.913Z,56.25
2019-05-03T06:13:46.956Z,50.625
2019-05-03T06:14:58.573Z,56.25
2019-05-03T06:15:58.093Z,50.625
2019-05-03T06:16:57.563Z,50.625
2019-05-03T06:17:57.845Z,50.625
2019-05-03T06:18:57.262Z,45
2019-05-03T06:19:57.088Z,45
2019-05-03T06:21:08.406Z,45
2019-05-03T06:22:07.737Z,45
2019-05-03T06:23:07.754Z,50.625
2019-05-03T06:24:07.243Z,50.625
2019-05-03T06:25:06.810Z,56.25
2019-05-03T06:25:18.613Z,56.25
2019-05-03T06:26:18.101Z,56.25
2019-05-03T06:27:17.544Z,50.625
2019-05-03T06:28:20.771Z,56.25
2019-05-03T06:29:17.339Z,56.25
2019-05-03T06:30:27.775Z,56.25
2019-05-03T06:31:28.329Z,56.25
2019-05-03T06:32:27.682Z,56.25
2019-05-03T06:33:27.195Z,56.25
2019-05-03T06:34:26.631Z,56.25
2019-05-03T06:34:38.610Z,56.25
2019-05-03T06:35:38.290Z,56.25
2019-05-03T06:36:37.821Z,56.25
2019-05-03T06:37:37.111Z,56.25
2019-05-03T06:38:48.352Z,56.25
2019-05-03T06:39:47.816Z,56.25
2019-05-03T06:40:47.268Z,61.875
2019-05-03T06:41:46.932Z,61.875
2019-05-03T06:44:37.493Z,56.25
2019-05-03T06:45:41.030Z,56.25
2019-05-03T06:46:37.420Z,50.625
2019-05-03T06:47:40.155Z,45
2019-05-03T06:48:38.112Z,45
2019-05-03T06:49:26.955Z,45
2019-05-03T06:50:38.239Z,45
2019-05-03T06:51:39.910Z,45
2019-05-03T06:52:38.097Z,45
2019-05-03T06:53:41.730Z,50.625
2019-05-03T06:54:38.092Z,50.625
2019-05-03T06:55:39.901Z,50.625
2019-05-03T06:56:38.128Z,50.625
2019-05-03T06:57:39.984Z,50.625
2019-05-03T06:58:37.996Z,50.625
2019-05-03T06:59:37.569Z,67.5
2019-05-03T07:00:37.142Z,73.125
2019-05-03T07:01:36.997Z,73.125
2019-05-03T07:02:37.622Z,67.5
2019-05-03T07:03:37.198Z,67.5
2019-05-03T07:04:36.834Z,67.5
2019-05-03T07:04:48.669Z,67.5
2019-05-03T07:05:48.105Z,67.5
2019-05-03T07:06:48.694Z,67.5
2019-05-03T07:07:37.443Z,67.5
2019-05-03T07:08:36.852Z,67.5
2019-05-03T07:09:37.087Z,73.125
2019-05-03T07:10:37.142Z,67.5
2019-05-03T07:11:37.207Z,73.125
2019-05-03T07:12:37.200Z,73.125
2019-05-03T07:13:37.075Z,78.75
2019-05-03T07:14:36.660Z,78.75
2019-05-03T07:14:50.449Z,73.125
2019-05-03T07:15:48.290Z,84.375
2019-05-03T07:16:48.002Z,73.125
2019-05-03T07:17:47.704Z,78.75
2019-05-03T07:18:47.054Z,90
2019-05-03T07:19:46.691Z,90
2019-05-03T07:19:58.560Z,84.375
2019-05-03T07:20:58.133Z,90
2019-05-03T07:21:57.559Z,84.375
2019-05-03T07:22:57.287Z,90
2019-05-03T07:23:56.853Z,90
2019-05-03T07:24:08.800Z,90
2019-05-03T07:25:08.279Z,90
2019-05-03T07:26:07.657Z,90
2019-05-03T07:27:08.204Z,90
2019-05-03T07:28:07.806Z,84.375
2019-05-03T07:29:07.216Z,90
2019-05-03T07:30:18.576Z,84.375
2019-05-03T07:31:18.178Z,95.625
2019-05-03T07:32:17.594Z,95.625
2019-05-03T07:33:17.011Z,101.25
2019-05-03T07:34:28.481Z,101.25
2019-05-03T07:35:27.879Z,101.25
2019-05-03T07:36:28.299Z,106.875
2019-05-03T07:37:26.737Z,118.125
2019-05-03T07:37:38.593Z,118.125
2019-05-03T07:38:38.143Z,123.75
2019-05-03T07:39:37.494Z,112.5
2019-05-03T07:40:36.987Z,118.125
2019-05-03T07:41:48.510Z,106.875
2019-05-03T07:42:48.005Z,106.875
2019-05-03T07:43:47.429Z,95.625
2019-05-03T07:44:47.090Z,101.25
2019-05-03T07:45:58.363Z,90
2019-05-03T07:46:57.826Z,90
2019-05-03T07:47:57.336Z,84.375
2019-05-03T07:48:56.834Z,84.375
2019-05-03T07:49:08.683Z,78.75
2019-05-03T07:50:08.213Z,73.125
2019-05-03T07:51:07.704Z,73.125
2019-05-03T07:52:07.146Z,73.125
2019-05-03T07:53:06.639Z,78.75
2019-05-03T07:53:18.717Z,78.75
2019-05-03T07:54:18.256Z,78.75
2019-05-03T07:55:17.658Z,84.375
2019-05-03T07:56:17.246Z,84.375
2019-05-03T07:57:18.205Z,84.375
2019-05-03T07:57:28.744Z,90
2019-05-03T07:58:28.101Z,90
2019-05-03T07:59:27.536Z,90
2019-05-03T08:00:27.030Z,90
2019-05-03T08:01:38.489Z,90
2019-05-03T08:02:37.872Z,95.625
2019-05-03T08:03:37.320Z,95.625
2019-05-03T08:04:36.960Z,106.875
2019-05-03T08:05:48.216Z,90
2019-05-03T08:06:47.655Z,90
2019-05-03T08:07:47.149Z,84.375
2019-05-03T08:08:46.669Z,90
2019-05-03T08:08:58.573Z,90
2019-05-03T08:09:57.981Z,90
2019-05-03T08:10:57.511Z,95.625
2019-05-03T08:11:56.887Z,95.625
2019-05-03T08:12:08.733Z,95.625
2019-05-03T08:13:08.307Z,95.625
2019-05-03T08:14:07.828Z,101.25
2019-05-03T08:15:07.237Z,101.25
2019-05-03T08:16:06.741Z,101.25
2019-05-03T08:16:18.574Z,101.25
2019-05-03T08:17:18.052Z,101.25
2019-05-03T08:18:17.525Z,101.25
2019-05-03T08:19:17.002Z,101.25
2019-05-03T08:20:28.491Z,95.625
2019-05-03T08:21:27.942Z,95.625
2019-05-03T08:22:27.408Z,95.625
2019-05-03T08:23:30.233Z,95.625
2019-05-03T08:24:27.184Z,90
2019-05-03T08:25:38.395Z,90
2019-05-03T08:26:38.166Z,95.625
2019-05-03T08:27:37.568Z,95.625
2019-05-03T08:28:36.954Z,95.625
2019-05-03T08:29:48.556Z,95.625
2019-05-03T08:30:48.050Z,95.625
2019-05-03T08:31:47.444Z,95.625
2019-05-03T08:32:46.914Z,95.625
2019-05-03T08:33:58.392Z,95.625
2019-05-03T08:34:57.666Z,101.25
2019-05-03T08:35:57.196Z,95.625
2019-05-03T08:36:56.779Z,95.625
2019-05-03T08:37:08.684Z,101.25
2019-05-03T08:38:08.202Z,101.25
2019-05-03T08:39:07.541Z,101.25
2019-05-03T08:40:07.094Z,101.25
2019-05-03T08:41:06.642Z,101.25
2019-05-03T08:41:18.489Z,101.25
2019-05-03T08:42:17.842Z,101.25
2019-05-03T08:43:17.346Z,101.25
2019-05-03T08:44:16.815Z,106.875
2019-05-03T08:44:28.658Z,106.875
2019-05-03T08:45:28.195Z,106.875
2019-05-03T08:46:27.698Z,106.875
2019-05-03T08:47:27.192Z,106.875
2019-05-03T08:48:38.459Z,112.5
2019-05-03T08:49:27.067Z,112.5
2019-05-03T08:50:27.705Z,112.5
2019-05-03T08:51:27.230Z,112.5
2019-05-03T08:52:26.792Z,112.5
2019-05-03T08:52:38.750Z,112.5
2019-05-03T08:53:38.375Z,112.5
2019-05-03T08:54:37.869Z,112.5
2019-05-03T08:55:37.251Z,118.125
2019-05-03T08:56:36.861Z,118.125
2019-05-03T08:56:48.749Z,118.125
2019-05-03T08:57:48.177Z,112.5
2019-05-03T08:58:36.903Z,101.25
2019-05-03T08:59:48.315Z,101.25
2019-05-03T09:00:47.706Z,112.5
2019-05-03T09:01:48.156Z,118.125
2019-05-03T09:02:36.706Z,123.75
2019-05-03T09:02:48.563Z,123.75
2019-05-03T09:03:48.098Z,129.375
2019-05-03T09:04:48.499Z,123.75
2019-05-03T09:05:48.155Z,106.875
2019-05-03T09:06:47.763Z,112.5
2019-05-03T09:07:47.150Z,101.25
2019-05-03T09:08:46.763Z,95.625
2019-05-03T09:08:58.610Z,95.625
2019-05-03T09:09:58.073Z,101.25
2019-05-03T09:10:57.467Z,101.25
2019-05-03T09:11:56.936Z,106.875
2019-05-03T09:13:08.374Z,112.5
2019-05-03T09:14:07.715Z,146.25
2019-05-03T09:15:07.145Z,146.25
2019-05-03T09:16:18.602Z,123.75
2019-05-03T09:17:18.082Z,95.625
2019-05-03T09:18:17.734Z,95.625
2019-05-03T09:19:17.048Z,73.125
2019-05-03T09:20:28.453Z,67.5
2019-05-03T09:21:27.869Z,67.5
2019-05-03T09:22:27.206Z,78.75
2019-05-03T09:23:26.708Z,78.75
2019-05-03T09:23:38.644Z,84.375
2019-05-03T09:24:38.153Z,84.375
2019-05-03T09:25:37.506Z,95.625
2019-05-03T09:26:37.916Z,101.25
2019-05-03T09:27:37.252Z,106.875
2019-05-03T09:28:37.805Z,106.875
2019-05-03T09:29:43.049Z,101.25
2019-05-03T09:30:37.755Z,95.625
2019-05-03T09:31:37.191Z,90
2019-05-03T09:32:48.447Z,78.75
2019-05-03T09:33:47.929Z,73.125
2019-05-03T09:34:47.578Z,67.5
2019-05-03T09:35:46.960Z,67.5
2019-05-03T09:36:58.341Z,61.875
2019-05-03T09:37:57.967Z,61.875
2019-05-03T09:38:57.425Z,73.125
2019-05-03T09:39:57.031Z,84.375
2019-05-03T09:41:08.388Z,95.625
2019-05-03T09:42:07.865Z,95.625
2019-05-03T09:43:07.282Z,95.625
2019-05-03T09:44:06.702Z,101.25
2019-05-03T09:44:18.606Z,101.25
2019-05-03T09:45:17.991Z,106.875
2019-05-03T09:46:17.498Z,112.5
2019-05-03T09:47:16.910Z,123.75
2019-05-03T09:48:16.652Z,140.625
2019-05-03T09:48:28.499Z,135
2019-05-03T09:49:27.979Z,140.625
2019-05-03T09:50:27.402Z,146.25
2019-05-03T09:51:26.998Z,151.875
2019-05-03T09:52:38.656Z,101.25
2019-05-03T09:53:37.925Z,118.125
2019-05-03T09:54:37.406Z,95.625
2019-05-03T09:55:36.890Z,90
2019-05-03T09:57:36.917Z,101.25
2019-05-03T09:58:48.273Z,106.875
2019-05-03T09:59:55.950Z,140.625
2019-05-03T10:00:47.134Z,146.25
2019-05-03T10:01:46.660Z,140.625
2019-05-03T10:01:58.512Z,140.625
2019-05-03T10:02:58.068Z,146.25
2019-05-03T10:03:57.469Z,151.875
2019-05-03T10:04:56.972Z,129.375
2019-05-03T10:06:08.426Z,140.625
2019-05-03T10:07:07.741Z,146.25
2019-05-03T10:08:07.235Z,129.375
2019-05-03T10:09:18.547Z,101.25
2019-05-03T10:10:18.170Z,95.625
2019-05-03T10:11:17.748Z,95.625
2019-05-03T10:12:17.094Z,73.125
2019-05-03T10:13:23.323Z,67.5
2019-05-03T10:14:17.139Z,61.875
2019-05-03T10:15:16.631Z,56.25
2019-05-03T10:15:28.576Z,56.25
2019-05-03T10:16:28.022Z,56.25
2019-05-03T10:17:27.362Z,56.25
2019-05-03T10:18:26.887Z,56.25
2019-05-03T10:20:26.685Z,61.875
2019-05-03T10:20:38.532Z,61.875
2019-05-03T10:21:37.974Z,67.5
2019-05-03T10:22:37.332Z,78.75
2019-05-03T10:23:36.776Z,95.625
2019-05-03T10:23:48.680Z,95.625
2019-05-03T10:24:37.333Z,101.25
2019-05-03T10:25:39.954Z,106.875
2019-05-03T10:26:48.161Z,112.5
2019-05-03T10:27:47.624Z,112.5
2019-05-03T10:28:47.066Z,140.625
2019-05-03T10:30:09.531Z,135
2019-05-03T10:30:57.919Z,151.875
2019-05-03T10:31:57.456Z,135
2019-05-03T10:32:56.921Z,163.125
2019-05-03T10:34:08.445Z,157.5
2019-05-03T10:35:08.047Z,140.625
2019-05-03T10:36:07.708Z,129.375
2019-05-03T10:37:07.338Z,118.125
2019-05-03T10:38:06.986Z,140.625
2019-05-03T10:39:06.691Z,101.25
2019-05-03T10:39:18.612Z,95.625
2019-05-03T10:40:18.041Z,95.625
2019-05-03T10:41:17.555Z,95.625
2019-05-03T10:42:16.858Z,112.5
2019-05-03T10:43:28.407Z,123.75
2019-05-03T10:44:27.999Z,129.375
2019-05-03T10:45:28.083Z,140.625
2019-05-03T10:46:26.964Z,151.875
2019-05-03T10:47:38.351Z,146.25
2019-05-03T10:48:37.768Z,140.625
2019-05-03T10:49:37.397Z,135
2019-05-03T10:50:36.750Z,106.875
2019-05-03T10:50:50.818Z,95.625
2019-05-03T10:51:48.094Z,95.625
2019-05-03T10:52:47.616Z,101.25
2019-05-03T10:53:47.083Z,95.625
2019-05-03T10:54:58.358Z,84.375
2019-05-03T10:55:57.688Z,73.125
2019-05-03T10:56:57.286Z,61.875
2019-05-03T10:57:57.763Z,50.625
2019-05-03T10:58:57.402Z,50.625
2019-05-03T10:59:56.846Z,45
2019-05-03T11:00:08.825Z,45
2019-05-03T11:00:57.805Z,45
2019-05-03T11:01:57.163Z,45
2019-05-03T11:03:08.623Z,50.625
2019-05-03T11:04:08.047Z,50.625
2019-05-03T11:05:08.347Z,56.25
2019-05-03T11:05:56.915Z,61.875
2019-05-03T11:07:08.410Z,67.5
2019-05-03T11:08:07.809Z,73.125
2019-05-03T11:09:07.208Z,78.75
2019-05-03T11:10:06.685Z,78.75
2019-05-03T11:11:07.084Z,90
2019-05-03T11:12:06.686Z,95.625
2019-05-03T11:12:18.535Z,101.25
2019-05-03T11:13:18.010Z,112.5
2019-05-03T11:14:17.586Z,129.375
2019-05-03T11:15:17.086Z,140.625
2019-05-03T11:16:16.634Z,146.25
2019-05-03T11:16:28.554Z,151.875
2019-05-03T11:17:27.970Z,146.25
2019-05-03T11:18:28.213Z,146.25
2019-05-03T11:19:26.793Z,135
2019-05-03T11:19:38.741Z,129.375
2019-05-03T11:21:30.861Z,118.125
2019-05-03T11:22:26.940Z,106.875
2019-05-03T11:23:38.190Z,106.875
2019-05-03T11:24:37.820Z,95.625
2019-05-03T11:25:37.148Z,101.25
2019-05-03T11:26:36.646Z,101.25
2019-05-03T11:26:48.484Z,101.25
2019-05-03T11:27:48.002Z,106.875
2019-05-03T11:28:47.384Z,112.5
2019-05-03T11:29:46.815Z,123.75
2019-05-03T11:31:46.826Z,135
2019-05-03T11:31:58.719Z,135
2019-05-03T11:32:58.336Z,123.75
2019-05-03T11:33:57.853Z,106.875
2019-05-03T11:34:58.451Z,106.875
2019-05-03T11:35:58.205Z,106.875
2019-05-03T11:36:47.876Z,118.125
2019-05-03T11:37:37.917Z,135
2019-05-03T11:38:38.252Z,157.5
2019-05-03T11:39:38.088Z,123.75
2019-05-03T11:40:37.584Z,118.125
2019-05-03T11:41:38.175Z,135
2019-05-03T11:42:37.747Z,140.625
2019-05-03T11:43:37.615Z,146.25
2019-05-03T11:44:37.236Z,146.25
2019-05-03T11:45:37.099Z,157.5
2019-05-03T11:46:37.013Z,163.125
2019-05-03T11:47:36.755Z,168.75
2019-05-03T11:47:48.652Z,157.5
2019-05-03T11:48:48.155Z,168.75
2019-05-03T11:49:47.738Z,168.75
2019-05-03T11:50:47.447Z,174.375
2019-05-03T11:51:47.017Z,168.75
2019-05-03T11:52:58.397Z,168.75
2019-05-03T11:53:57.768Z,118.125
2019-05-03T11:54:57.240Z,140.625
2019-05-03T11:55:56.684Z,129.375
2019-05-03T11:56:08.638Z,123.75
2019-05-03T11:57:08.347Z,78.75
2019-05-03T11:58:08.363Z,78.75
2019-05-03T11:59:08.189Z,73.125
2019-05-03T12:00:07.799Z,73.125
2019-05-03T12:01:57.322Z,95.625
2019-05-03T12:02:57.124Z,106.875
2019-05-03T12:03:56.894Z,123.75
2019-05-03T12:04:56.711Z,129.375
2019-05-03T12:05:08.770Z,140.625
2019-05-03T12:06:08.297Z,146.25
2019-05-03T12:07:07.866Z,118.125
2019-05-03T12:08:07.541Z,95.625
2019-05-03T12:09:07.193Z,90
2019-05-03T12:10:15.979Z,84.375
2019-05-03T12:11:07.869Z,90
2019-05-03T12:12:07.503Z,95.625
2019-05-03T12:13:07.391Z,101.25
2019-05-03T12:14:07.788Z,106.875
2019-05-03T12:15:08.238Z,101.25
2019-05-03T12:16:16.903Z,101.25
2019-05-03T12:17:17.747Z,101.25
2019-05-03T12:18:57.737Z,106.875
2019-05-03T12:19:59.446Z,112.5
2019-05-03T12:20:48.506Z,118.125
2019-05-03T12:21:48.745Z,123.75
2019-05-03T12:22:48.938Z,135
2019-05-03T12:24:37.913Z,163.125
2019-05-03T12:25:37.481Z,202.5
2019-05-03T12:26:43.331Z,230.625
2019-05-03T12:27:36.872Z,230.625
2019-05-03T12:28:48.335Z,202.5
2019-05-03T12:29:47.969Z,180
2019-05-03T12:30:47.442Z,168.75
2019-05-03T12:31:48.011Z,163.125
2019-05-03T12:32:47.431Z,146.25